TULLOCH (TUL)

Elevation: 515' · STANISLAUS R basin · Operator: US Bureau of Reclamation

Provisional data, subject to change.
Query executed Tuesday at 14:19:43   clock

Select a sensor type for a plot of data.
Note: Reservoir Flows are daily averages.

Earlier

Date RES ELE    STORAGE    RES CHG    TOC STO    OUTFLOW    INFLOW    EVAP    RIV REL    SPILL    DIS PWR   
 FEET   AF   AF   AF   CFS   CFS   CFS   CFS   CFS   CFS  
06/23/2014 508.58 65203 762 67000 1660 2062 18 0 0 1660
06/24/2014 508.68 65326 123 67000 1671 1751 18 0 0 1671
06/25/2014 508.33 64895 -431 67000 1730 1530 17 0 0 1730
06/26/2014 508.62 65252 357 67000 1808 2002 14 0 0 1808
06/27/2014 508.71 65363 111 67000 1854 1924 14 0 0 1854
06/28/2014 508.72 65375 12 67000 1952 1974 16 0 0 1952
06/29/2014 507.90 64368 -1007 67000 1939 1449 18 0 0 1939
06/30/2014 509.15 65907 1539 67000 1943 2739 20 0 0 1943
07/01/2014 508.84 65523 -384 67000 1980 1805 19 0 0 1980
07/02/2014 509.03 65757 234 67000 1977 2116 21 0 0 1977
07/03/2014 508.89 65585 -172 67000 1879 1810 18 6 80 1793
07/04/2014 508.85 65535 -50 67000 1766 1762 21 0 0 1766
07/05/2014 508.93 65634 99 67000 1748 1820 22 0 0 1748
07/06/2014 509.27 66057 423 67000 1750 1984 21 0 0 1750
07/07/2014 509.16 65920 -137 67000 1683 1635 21 0 0 1683
07/08/2014 508.84 65523 -397 67000 1654 1467 13 0 0 1654
07/09/2014 508.88 65572 49 67000 1631 1674 18 0 0 1631
07/10/2014 508.93 65634 62 -- 1622 1670 17 0 0 1622
07/11/2014 509.09 65832 198 67000 1643 1759 16 0 0 1643
07/12/2014 509.14 65895 63 67000 1655 1708 21 0 0 1655
07/13/2014 509.04 65770 -125 67000 1633 1588 18 0 0 1633
07/14/2014 509.08 65820 50 67000 1710 1749 14 0 0 1710
07/15/2014 509.32 66119 299 67000 1696 1866 19 0 0 1696
07/16/2014 509.25 66032 -87 67000 1681 1655 18 0 0 1681
07/17/2014 509.27 66057 25 67000 1656 1687 18 0 0 1656
07/18/2014 509.12 65870 -187 67000 1649 1571 16 0 0 1649
07/19/2014 509.08 65820 -50 67000 1705 1695 15 0 0 1705
07/20/2014 508.93 65634 -186 67000 1729 1653 18 0 0 1729
07/21/2014 508.02 64514 -1120 67000 1761 1209 13 0 0 1761
07/22/2014 -- -- -- -- -- -- -- -- -- --

Later | Latest

Warning! This data is preliminary and subject to revision.

Download Data Now Download Data Now | Show TUL Map | Plot TUL Data | 1 Month TUL Data | Real-Time TUL Data | TUL Info